Pojoaque, New Mexico
Current Conditions -  °F | °C
As of 8:53 PM on Saturday 25 Oct 2014 (Local Time) from KSAF Reporting Station
Clear Clear  
Wind Chill: 56°   Ceiling: Unl
Heat Index: 56°   Visibility: 10mi
Dew Point: 28°   Wind: 6mph
Humidity: 34%   Direction: 320°NW
Pressure: 30.22"   Gusts: NA
Location:  35.7017°N, 105.921°W
Report Text: KSAF 260253Z AUTO 32005KT 10SM CLR 13/M02 A3022 RMK AO2 SLP174 T01331022 53002
Loading
Personal Weather Stations






























Interactive Weather Map
Tropical Storm Tracking
New forecast layout! Learn more

10-Day Weather Forecast

Advertisements
Track Severe Weather on mobile